Time;durP1;ratioP1;P1;durP2;ratioP2;P2;SDS_P1;SDS_P2;PMS_P1;PMS_P2;Temp;Humidity;BMP_temperature;BMP_pressure;BME280_temperature;BME280_humidity;BME280_pressure;Samples;Min_cycle;Max_cycle;Signal;HPM_P1;HPM_P2
2024/01/24 00:00:51;;;;;;;51.72;29.95;;;2.80;99.90;;;;;;4953221;29;20035;-74
2024/01/24 00:03:21;;;;;;;48.53;30.85;;;2.80;99.90;;;;;;4909758;29;20046;-73
2024/01/24 00:05:47;;;;;;;47.65;30.90;;;2.80;99.90;;;;;;4918290;29;20031;-73
2024/01/24 00:08:13;;;;;;;45.63;28.50;;;2.80;99.90;;;;;;4941093;29;20024;-74
2024/01/24 00:10:39;;;;;;;47.50;29.70;;;2.80;99.90;;;;;;4939640;29;20436;-74
2024/01/24 00:13:05;;;;;;;45.47;28.67;;;2.80;99.90;;;;;;4937824;29;20027;-78
2024/01/24 00:15:42;;;;;;;44.00;28.48;;;2.70;99.90;;;;;;4913626;29;20070;-73
2024/01/24 00:18:08;;;;;;;49.22;30.65;;;2.70;99.90;;;;;;4928660;29;20028;-73
2024/01/24 00:20:34;;;;;;;44.78;27.90;;;2.70;99.90;;;;;;4948984;29;20367;-78
2024/01/24 00:22:59;;;;;;;44.05;29.10;;;2.70;99.90;;;;;;4924664;29;20038;-79
2024/01/24 00:25:26;;;;;;;44.90;29.13;;;2.70;99.90;;;;;;4952093;29;20043;-81
2024/01/24 00:27:57;;;;;;;45.35;29.30;;;2.70;99.90;;;;;;4942760;29;20051;-74
2024/01/24 00:30:23;;;;;;;41.05;27.50;;;2.70;99.90;;;;;;4944201;29;20047;-75
2024/01/24 00:32:49;;;;;;;42.20;28.15;;;2.70;99.90;;;;;;4939773;29;20024;-76
2024/01/24 00:35:15;;;;;;;46.75;28.15;;;2.70;99.90;;;;;;4944734;29;20032;-74
2024/01/24 00:37:41;;;;;;;45.55;28.45;;;2.70;99.90;;;;;;4939530;29;20079;-74
2024/01/24 00:40:07;;;;;;;44.22;28.83;;;2.60;99.90;;;;;;4935322;29;20043;-73
2024/01/24 00:42:33;;;;;;;42.90;28.00;;;2.60;99.90;;;;;;4934340;29;20032;-72
2024/01/24 00:44:59;;;;;;;40.35;27.10;;;2.60;99.90;;;;;;4947491;29;20369;-73
2024/01/24 00:47:28;;;;;;;43.92;28.98;;;2.60;99.90;;;;;;4946650;29;20038;-73
2024/01/24 00:49:53;;;;;;;44.15;29.63;;;2.50;99.90;;;;;;4937006;29;20424;-80
2024/01/24 00:52:19;;;;;;;38.53;26.45;;;2.40;99.90;;;;;;4934943;29;20112;-74
2024/01/24 00:54:45;;;;;;;38.67;25.48;;;2.40;99.90;;;;;;4936442;29;20111;-75
2024/01/24 00:57:14;;;;;;;41.47;27.52;;;2.40;99.90;;;;;;4941329;29;20106;-74
2024/01/24 00:59:42;;;;;;;42.42;27.42;;;2.40;99.90;;;;;;4940495;29;20058;-74
2024/01/24 01:02:08;;;;;;;45.60;29.75;;;2.30;99.90;;;;;;4941993;29;20031;-73
2024/01/24 01:04:34;;;;;;;41.65;27.10;;;2.30;99.90;;;;;;4942142;29;20027;-74
2024/01/24 01:07:05;;;;;;;42.40;26.67;;;2.30;99.90;;;;;;4944554;29;20368;-74
2024/01/24 01:09:32;;;;;;;43.58;26.33;;;2.40;99.90;;;;;;4921787;29;20038;-74
2024/01/24 01:11:58;;;;;;;41.03;26.67;;;2.30;99.90;;;;;;4934740;29;20026;-74
2024/01/24 01:14:24;;;;;;;45.22;29.30;;;2.30;99.90;;;;;;4916656;29;20032;-76
2024/01/24 01:16:50;;;;;;;52.92;32.00;;;2.30;99.90;;;;;;4940185;29;20022;-73
2024/01/24 01:19:16;;;;;;;48.13;31.88;;;2.20;99.90;;;;;;4947628;29;20023;-73
2024/01/24 01:21:42;;;;;;;44.35;29.73;;;2.20;99.90;;;;;;4941069;29;20106;-74
2024/01/24 01:24:12;;;;;;;45.50;29.63;;;2.20;99.90;;;;;;4948240;29;20118;-75
2024/01/24 01:26:39;;;;;;;38.40;24.90;;;2.20;99.90;;;;;;4934291;29;20052;-76
2024/01/24 01:29:05;;;;;;;39.75;25.20;;;2.20;99.90;;;;;;4940948;29;20031;-75
2024/01/24 01:31:31;;;;;;;36.03;24.58;;;2.10;99.90;;;;;;4929512;29;20468;-76
2024/01/24 01:33:57;;;;;;;37.15;25.20;;;2.10;99.90;;;;;;4938457;29;20032;-73
2024/01/24 01:36:23;;;;;;;39.28;24.80;;;2.00;99.90;;;;;;4945231;29;20064;-73
2024/01/24 01:38:49;;;;;;;34.10;23.25;;;2.00;99.90;;;;;;4933434;29;20480;-74
2024/01/24 01:41:18;;;;;;;33.63;21.38;;;2.10;99.90;;;;;;4940078;29;20495;-74
2024/01/24 01:43:45;;;;;;;33.05;21.90;;;2.10;99.90;;;;;;4913703;29;20115;-74
2024/01/24 01:46:17;;;;;;;34.08;20.42;;;2.20;99.90;;;;;;4941037;29;20019;-74
2024/01/24 01:48:43;;;;;;;36.47;22.15;;;2.20;99.90;;;;;;4918502;29;20042;-74
2024/01/24 01:51:10;;;;;;;38.78;20.48;;;2.30;99.90;;;;;;4935238;29;20027;-75
2024/01/24 01:53:38;;;;;;;35.83;22.30;;;2.30;99.90;;;;;;4939590;29;20118;-74
2024/01/24 01:56:15;;;;;;;37.00;23.08;;;2.30;99.90;;;;;;4944154;29;20058;-72
2024/01/24 01:58:46;;;;;;;57.17;31.77;;;2.40;99.90;;;;;;4946681;29;20032;-75
2024/01/24 02:01:14;;;;;;;59.80;35.42;;;2.30;99.90;;;;;;4914979;29;20186;-75
2024/01/24 02:03:48;;;;;;;58.25;33.30;;;2.30;99.90;;;;;;4919812;29;20042;-74
2024/01/24 02:10:14;;;;;;;45.88;27.00;;;2.40;99.90;;;;;;4974216;23;20121;-80
2024/01/24 02:12:40;;;;;;;45.30;27.80;;;2.30;99.90;;;;;;4948243;28;20027;-76
2024/01/24 02:15:09;;;;;;;58.15;36.88;;;2.30;99.90;;;;;;4956312;28;20106;-81
2024/01/24 02:17:35;;;;;;;53.65;33.88;;;2.20;99.90;;;;;;4962591;28;20382;-76
2024/01/24 02:20:02;;;;;;;49.20;26.77;;;2.00;99.90;;;;;;4960394;28;20027;-76
2024/01/24 02:22:27;;;;;;;43.78;26.48;;;2.00;99.90;;;;;;4943325;28;20420;-76
2024/01/24 02:24:53;;;;;;;47.17;27.27;;;2.00;99.90;;;;;;4955709;28;20043;-76
2024/01/24 02:27:19;;;;;;;43.50;22.23;;;2.00;99.90;;;;;;4961584;28;20432;-74
2024/01/24 02:29:45;;;;;;;32.17;19.17;;;1.90;99.90;;;;;;4960643;28;20110;-74
2024/01/24 02:32:11;;;;;;;32.95;19.50;;;1.90;99.90;;;;;;4958630;28;20023;-74
2024/01/24 02:34:37;;;;;;;29.23;18.73;;;1.90;99.90;;;;;;4938669;28;20028;-73
2024/01/24 02:37:04;;;;;;;31.63;18.17;;;1.90;99.90;;;;;;4962341;28;20015;-74
2024/01/24 02:39:30;;;;;;;35.40;18.90;;;1.90;99.90;;;;;;4958348;28;20047;-78
2024/01/24 02:41:55;;;;;;;35.85;20.23;;;1.90;99.90;;;;;;4962205;28;20390;-76
2024/01/24 02:44:21;;;;;;;35.63;22.15;;;1.90;99.90;;;;;;4940724;28;20125;-74
2024/01/24 02:46:47;;;;;;;37.08;20.92;;;1.90;99.90;;;;;;4960221;28;20024;-76
2024/01/24 02:49:13;;;;;;;35.65;21.92;;;1.90;99.90;;;;;;4958164;28;20023;-77
2024/01/24 02:51:39;;;;;;;38.05;21.60;;;1.90;99.90;;;;;;4955793;28;20023;-76
2024/01/24 02:54:05;;;;;;;31.65;19.08;;;1.80;99.90;;;;;;4957976;28;20509;-76
2024/01/24 02:56:33;;;;;;;29.17;16.75;;;1.80;99.90;;;;;;4958081;28;20109;-75
2024/01/24 02:58:59;;;;;;;30.65;16.58;;;1.90;99.90;;;;;;4958408;28;20023;-78
2024/01/24 03:01:25;;;;;;;25.42;16.95;;;1.80;99.90;;;;;;4953531;28;20589;-75
2024/01/24 03:03:51;;;;;;;31.95;19.75;;;1.70;99.90;;;;;;4956470;28;20121;-76
2024/01/24 03:06:17;;;;;;;34.88;21.33;;;1.70;99.90;;;;;;4956215;28;20023;-76
2024/01/24 03:08:54;;;;;;;40.50;22.42;;;1.70;99.90;;;;;;4938085;28;20149;-76
2024/01/24 03:11:20;;;;;;;32.75;19.42;;;1.70;99.90;;;;;;4959268;28;20055;-75
2024/01/24 03:13:46;;;;;;;37.85;21.05;;;1.80;99.90;;;;;;4959080;28;20038;-74
2024/01/24 03:16:12;;;;;;;33.97;22.45;;;1.80;99.90;;;;;;4965173;28;20109;-74
2024/01/24 03:18:39;;;;;;;34.80;21.02;;;1.70;99.90;;;;;;4957499;28;20037;-75
2024/01/24 03:21:07;;;;;;;34.97;22.45;;;1.80;99.90;;;;;;4928149;28;20023;-75
2024/01/24 03:23:33;;;;;;;35.47;21.85;;;1.70;99.90;;;;;;4954534;28;20062;-75
2024/01/24 03:25:59;;;;;;;35.13;22.23;;;1.80;99.90;;;;;;4960406;28;20078;-76
2024/01/24 03:28:25;;;;;;;35.38;20.98;;;1.80;99.90;;;;;;4958558;28;20439;-74
2024/01/24 03:30:52;;;;;;;31.35;19.45;;;1.80;99.90;;;;;;4958221;28;20027;-73
2024/01/24 03:33:17;;;;;;;30.85;20.02;;;1.70;99.90;;;;;;4955535;28;20039;-76
2024/01/24 03:35:43;;;;;;;30.75;20.13;;;1.50;99.90;;;;;;4955238;28;20020;-74
2024/01/24 03:38:09;;;;;;;32.20;20.88;;;1.40;99.90;;;;;;4957728;28;20054;-74
2024/01/24 03:40:35;;;;;;;34.88;22.48;;;1.40;99.90;;;;;;4959544;28;20031;-74
2024/01/24 03:43:01;;;;;;;39.33;26.20;;;1.30;99.90;;;;;;4956070;28;20023;-76
2024/01/24 03:45:27;;;;;;;35.65;25.23;;;1.30;99.90;;;;;;4956170;28;20117;-76
2024/01/24 03:47:53;;;;;;;36.53;24.50;;;1.40;99.90;;;;;;4957717;28;20058;-73
2024/01/24 03:50:18;;;;;;;34.75;24.45;;;1.40;99.90;;;;;;4957886;28;20450;-73
2024/01/24 03:52:44;;;;;;;36.22;22.85;;;1.40;99.90;;;;;;4957072;28;20102;-75
2024/01/24 03:55:10;;;;;;;34.05;23.85;;;1.40;99.90;;;;;;4936895;28;20027;-76
2024/01/24 03:57:36;;;;;;;39.35;23.15;;;1.40;99.90;;;;;;4953469;28;20023;-75
2024/01/24 04:00:05;;;;;;;29.27;18.55;;;1.40;99.90;;;;;;4957622;28;20104;-75
2024/01/24 04:02:38;;;;;;;28.77;19.90;;;1.40;99.90;;;;;;4956531;28;20097;-74
2024/01/24 04:05:04;;;;;;;30.20;17.58;;;1.40;99.90;;;;;;4960516;28;20067;-73
2024/01/24 04:07:30;;;;;;;28.48;19.75;;;1.50;99.90;;;;;;4954597;28;20016;-77
2024/01/24 04:09:55;;;;;;;29.35;19.83;;;1.50;99.90;;;;;;4955961;28;20473;-76
2024/01/24 04:12:21;;;;;;;31.25;18.20;;;1.50;99.90;;;;;;4958320;28;20546;-72
2024/01/24 04:14:47;;;;;;;29.58;19.05;;;1.40;99.90;;;;;;4958414;28;20038;-74
2024/01/24 04:17:13;;;;;;;31.90;19.15;;;1.40;99.90;;;;;;4958893;28;20426;-76
2024/01/24 04:19:39;;;;;;;33.53;18.85;;;1.40;99.90;;;;;;4949458;29;20514;-75
2024/01/24 04:22:05;;;;;;;31.65;18.67;;;1.40;99.90;;;;;;4970585;28;20041;-75
2024/01/24 04:24:30;;;;;;;34.58;19.25;;;1.40;99.90;;;;;;4973782;28;20042;-77
2024/01/24 04:26:57;;;;;;;36.13;20.88;;;1.30;99.90;;;;;;4973918;28;20073;-74
2024/01/24 04:29:23;;;;;;;36.35;20.50;;;1.40;99.90;;;;;;4974494;28;20434;-77
2024/01/24 04:31:48;;;;;;;34.95;22.20;;;1.40;99.90;;;;;;4973659;28;20030;-74
2024/01/24 04:34:17;;;;;;;40.10;23.98;;;1.50;99.90;;;;;;4974090;28;20122;-75
2024/01/24 04:36:46;;;;;;;42.20;25.75;;;1.40;99.90;;;;;;4973895;28;20018;-75
2024/01/24 04:39:12;;;;;;;46.00;28.67;;;1.40;99.90;;;;;;4973369;28;20038;-75
2024/01/24 04:41:38;;;;;;;45.45;27.23;;;1.40;99.90;;;;;;4973999;28;20030;-77
2024/01/24 04:44:04;;;;;;;52.28;32.30;;;1.30;99.90;;;;;;4973667;28;20061;-80
2024/01/24 04:46:30;;;;;;;56.80;34.92;;;1.30;99.90;;;;;;4956115;28;20038;-73
2024/01/24 04:48:56;;;;;;;64.53;40.03;;;1.30;99.90;;;;;;4973551;28;20035;-78
2024/01/24 04:51:22;;;;;;;65.70;39.72;;;1.30;99.90;;;;;;4973561;28;20027;-75
2024/01/24 04:53:48;;;;;;;63.53;41.33;;;1.30;99.90;;;;;;4973904;28;20041;-78
2024/01/24 04:56:14;;;;;;;70.40;41.60;;;1.40;99.90;;;;;;4973627;28;20079;-77
2024/01/24 04:58:40;;;;;;;70.25;43.90;;;1.40;99.90;;;;;;4973556;28;20054;-79
2024/01/24 05:01:06;;;;;;;90.47;53.33;;;1.40;99.90;;;;;;4973539;28;20049;-76
2024/01/24 05:03:32;;;;;;;79.35;48.08;;;1.50;99.90;;;;;;4973381;28;20460;-76
2024/01/24 05:05:58;;;;;;;61.80;40.95;;;1.40;99.90;;;;;;4965514;28;20035;-77
2024/01/24 05:08:24;;;;;;;75.65;46.65;;;1.40;99.90;;;;;;4956131;28;20086;-79
2024/01/24 05:10:50;;;;;;;82.57;52.05;;;1.40;99.90;;;;;;4972759;28;20494;-76
2024/01/24 05:13:16;;;;;;;84.15;50.65;;;1.30;99.90;;;;;;4955781;28;20039;-76
2024/01/24 05:15:42;;;;;;;103.35;61.03;;;1.30;99.90;;;;;;4972801;28;20027;-75
2024/01/24 05:18:08;;;;;;;79.10;48.55;;;1.20;99.90;;;;;;4972390;28;20423;-75
2024/01/24 05:20:34;;;;;;;70.90;41.00;;;1.20;99.90;;;;;;4972394;28;20031;-75
2024/01/24 05:23:00;;;;;;;70.22;46.33;;;1.20;99.90;;;;;;4972904;28;20386;-77
2024/01/24 05:25:25;;;;;;;69.65;41.67;;;1.10;99.90;;;;;;4971932;28;20034;-75
2024/01/24 05:27:51;;;;;;;87.88;59.30;;;1.20;99.90;;;;;;4971394;28;20034;-75
2024/01/24 05:30:17;;;;;;;89.00;53.10;;;1.20;99.90;;;;;;4972884;28;20038;-73
2024/01/24 05:32:43;;;;;;;80.88;44.47;;;1.20;99.90;;;;;;4972415;28;20093;-75
2024/01/24 05:35:09;;;;;;;56.08;33.35;;;1.10;99.90;;;;;;4955385;28;20048;-75
2024/01/24 05:37:35;;;;;;;70.90;34.15;;;1.10;99.90;;;;;;4972729;28;20027;-75
2024/01/24 05:40:00;;;;;;;80.57;33.90;;;1.10;99.90;;;;;;4972433;28;20423;-75
2024/01/24 05:42:26;;;;;;;60.03;32.15;;;1.10;99.90;;;;;;4972446;28;20093;-75
2024/01/24 05:44:52;;;;;;;62.47;30.00;;;1.10;99.90;;;;;;4972834;28;20046;-75
2024/01/24 05:47:18;;;;;;;50.30;26.42;;;1.10;99.90;;;;;;4972730;28;20031;-75
2024/01/24 05:49:44;;;;;;;54.92;25.77;;;1.10;99.90;;;;;;4972910;28;20039;-75
2024/01/24 05:52:10;;;;;;;48.47;26.73;;;1.10;99.90;;;;;;4972783;28;20022;-75
2024/01/24 05:54:36;;;;;;;41.47;23.35;;;1.10;99.90;;;;;;4972408;28;20371;-74
2024/01/24 05:57:06;;;;;;;44.40;24.52;;;1.10;99.90;;;;;;4972897;28;20467;-75
2024/01/24 05:59:32;;;;;;;46.67;24.75;;;1.10;99.90;;;;;;4954959;28;20045;-74
2024/01/24 06:01:58;;;;;;;41.95;23.08;;;1.20;99.90;;;;;;4972564;28;20026;-76
2024/01/24 06:04:24;;;;;;;46.25;26.63;;;1.20;99.90;;;;;;4972647;28;20031;-76
2024/01/24 06:06:50;;;;;;;50.38;26.33;;;1.20;99.90;;;;;;4972830;28;20027;-75
2024/01/24 06:09:20;;;;;;;48.00;23.92;;;1.20;99.90;;;;;;4972484;28;20058;-76
2024/01/24 06:11:48;;;;;;;57.53;27.83;;;1.20;99.90;;;;;;4972412;28;20466;-75
2024/01/24 06:14:14;;;;;;;47.42;24.83;;;1.20;99.90;;;;;;4972388;28;20073;-78
2024/01/24 06:16:40;;;;;;;46.33;24.50;;;1.20;99.90;;;;;;4971681;28;20102;-75
2024/01/24 06:19:06;;;;;;;65.95;30.83;;;1.20;99.90;;;;;;4972466;28;20023;-77
2024/01/24 06:21:32;;;;;;;58.13;33.85;;;1.30;99.90;;;;;;4972205;28;20026;-76
2024/01/24 06:23:58;;;;;;;66.20;39.03;;;1.30;99.90;;;;;;4967991;28;20066;-77
2024/01/24 06:26:23;;;;;;;71.68;40.88;;;1.30;99.90;;;;;;4954055;28;20137;-75
2024/01/24 06:28:49;;;;;;;83.90;46.13;;;1.30;99.90;;;;;;4972257;28;20027;-75
2024/01/24 06:31:15;;;;;;;72.75;38.70;;;1.30;99.90;;;;;;4968420;28;20046;-75
2024/01/24 06:33:41;;;;;;;69.82;38.50;;;1.40;99.90;;;;;;4972105;28;20033;-74
2024/01/24 06:36:07;;;;;;;71.72;44.22;;;1.30;99.90;;;;;;4970693;28;20038;-75
2024/01/24 06:38:33;;;;;;;68.65;40.75;;;1.40;99.90;;;;;;4974838;28;20027;-77
2024/01/24 06:40:59;;;;;;;85.88;50.63;;;1.50;99.90;;;;;;4941515;28;20050;-76
2024/01/24 06:43:30;;;;;;;86.20;51.03;;;1.50;99.90;;;;;;4975488;28;20092;-76
2024/01/24 06:45:58;;;;;;;;;;;1.60;99.90;;;;;;4952881;28;20030;-75
2024/01/24 06:48:24;;;;;;;68.68;41.30;;;1.60;99.90;;;;;;4975794;28;20278;-75
2024/01/24 06:50:55;;;;;;;74.93;47.80;;;1.70;99.90;;;;;;4975664;28;20018;-75
2024/01/24 06:53:27;;;;;;;73.25;48.42;;;1.80;99.90;;;;;;4942725;28;20414;-75
2024/01/24 06:55:53;;;;;;;74.10;50.38;;;1.90;99.90;;;;;;4963015;28;20023;-76
2024/01/24 06:58:19;;;;;;;58.80;38.90;;;2.00;99.90;;;;;;4975444;28;20105;-75
2024/01/24 07:00:45;;;;;;;47.20;34.25;;;2.10;99.90;;;;;;4975324;28;20027;-76
2024/01/24 07:03:11;;;;;;;46.92;32.35;;;2.20;99.90;;;;;;4975544;28;20041;-75
2024/01/24 07:05:37;;;;;;;53.25;36.78;;;2.30;99.90;;;;;;4975146;28;20038;-75
2024/01/24 07:08:03;;;;;;;119.20;75.57;;;2.40;99.90;;;;;;4975502;28;20034;-75
2024/01/24 07:10:29;;;;;;;60.10;38.92;;;2.40;99.90;;;;;;4974645;28;20057;-77
2024/01/24 07:12:56;;;;;;;53.92;32.90;;;2.40;99.90;;;;;;4975495;28;20026;-74
2024/01/24 07:15:22;;;;;;;53.50;34.25;;;2.40;99.90;;;;;;4975084;28;20077;-75
2024/01/24 07:17:47;;;;;;;56.53;33.80;;;2.50;99.90;;;;;;4975563;28;20034;-75
2024/01/24 07:20:15;;;;;;;71.60;45.03;;;2.50;99.90;;;;;;4975023;28;20029;-76
2024/01/24 07:22:41;;;;;;;80.97;50.78;;;2.60;99.90;;;;;;4975327;28;20023;-74
2024/01/24 07:25:07;;;;;;;54.58;37.67;;;2.70;99.90;;;;;;4975221;28;20525;-74
2024/01/24 07:27:34;;;;;;;56.97;32.45;;;2.80;99.90;;;;;;4974748;28;20023;-76
2024/01/24 07:30:03;;;;;;;50.00;30.90;;;2.90;99.90;;;;;;4975343;28;20027;-74
2024/01/24 07:32:31;;;;;;;52.05;31.73;;;2.80;99.90;;;;;;4974706;28;20039;-74
2024/01/24 07:34:58;;;;;;;69.97;39.30;;;3.00;99.90;;;;;;4975223;28;20042;-76
2024/01/24 07:37:25;;;;;;;64.55;37.58;;;3.10;99.90;;;;;;4974766;28;20375;-74
2024/01/24 07:39:51;;;;;;;67.53;39.75;;;3.30;99.90;;;;;;4974887;28;20041;-78
2024/01/24 07:42:18;;;;;;;43.60;29.08;;;3.30;99.90;;;;;;4974659;28;20039;-74
2024/01/24 07:44:44;;;;;;;52.60;29.85;;;3.30;99.90;;;;;;4957594;28;20118;-76
2024/01/24 07:47:09;;;;;;;68.50;41.38;;;3.20;99.90;;;;;;4974764;28;20027;-80
2024/01/24 07:49:35;;;;;;;59.40;36.35;;;3.50;99.90;;;;;;4973811;28;20053;-77
2024/01/24 07:52:02;;;;;;;59.83;36.83;;;3.60;99.90;;;;;;4974527;28;20129;-75
2024/01/24 07:54:28;;;;;;;63.78;36.85;;;3.80;99.90;;;;;;4956805;28;20391;-75
2024/01/24 07:56:54;;;;;;;53.47;34.08;;;4.00;99.90;;;;;;4974917;28;20026;-75
2024/01/24 07:59:21;;;;;;;58.67;33.58;;;4.00;99.90;;;;;;4974614;28;20062;-74
2024/01/24 08:01:47;;;;;;;42.47;27.27;;;4.00;99.90;;;;;;4974678;28;20047;-75
2024/01/24 08:04:14;;;;;;;48.88;30.60;;;4.10;99.90;;;;;;4974278;28;20062;-75
2024/01/24 08:06:47;;;;;;;57.72;32.85;;;4.10;99.90;;;;;;4971962;28;20134;-74
2024/01/24 08:09:14;;;;;;;60.25;35.53;;;4.20;99.90;;;;;;4948069;28;20205;-73
2024/01/24 08:11:40;;;;;;;73.00;45.55;;;4.20;99.90;;;;;;4973843;28;20039;-73
2024/01/24 08:14:13;;;;;;;68.35;41.38;;;4.40;99.90;;;;;;4956995;28;20066;-74
2024/01/24 08:17:01;;;;;;;58.38;37.85;;;4.40;99.90;;;;;;4956680;28;20026;-74
2024/01/24 08:19:27;;;;;;;55.38;33.65;;;4.50;99.90;;;;;;4956498;28;20038;-74
2024/01/24 08:21:54;;;;;;;55.45;32.40;;;4.60;99.90;;;;;;4974365;28;20126;-73
2024/01/24 08:24:20;;;;;;;48.38;29.90;;;4.70;99.90;;;;;;4973729;28;20077;-72
2024/01/24 08:26:45;;;;;;;51.05;34.60;;;4.80;99.90;;;;;;4974147;28;20026;-75
2024/01/24 08:29:11;;;;;;;60.65;34.58;;;4.80;99.90;;;;;;4973755;28;20065;-74
2024/01/24 08:31:37;;;;;;;67.82;42.10;;;5.00;99.90;;;;;;4974260;28;20066;-74
2024/01/24 08:34:10;;;;;;;59.78;37.03;;;5.00;99.90;;;;;;4973715;28;20034;-74
2024/01/24 08:36:36;;;;;;;;;;;5.20;99.90;;;;;;4957189;28;20069;-74
2024/01/24 08:39:06;;;;;;;46.45;31.65;;;5.30;99.90;;;;;;4973724;28;20388;-73
2024/01/24 08:41:32;;;;;;;44.67;30.05;;;5.30;99.90;;;;;;4940203;28;20031;-78
2024/01/24 08:43:59;;;;;;;47.03;32.88;;;4.90;99.90;;;;;;4973546;28;20094;-79
2024/01/24 08:46:35;;;;;;;49.40;32.58;;;5.10;99.90;;;;;;4973582;28;20030;-74
2024/01/24 08:49:02;;;;;;;48.13;34.70;;;5.00;99.90;;;;;;4956126;28;20022;-73
2024/01/24 08:51:31;;;;;;;51.22;31.95;;;5.30;99.90;;;;;;4948495;28;20478;-73
2024/01/24 08:54:01;;;;;;;53.42;36.28;;;5.40;99.90;;;;;;4956469;28;20027;-73
2024/01/24 08:56:27;;;;;;;78.38;53.30;;;5.60;99.90;;;;;;4956390;28;20038;-77
2024/01/24 08:58:53;;;;;;;77.97;53.80;;;5.80;99.90;;;;;;4973305;28;20035;-73
2024/01/24 09:01:19;;;;;;;78.53;50.55;;;5.80;99.90;;;;;;4973324;28;20039;-80
2024/01/24 09:03:46;;;;;;;66.53;43.53;;;6.00;99.90;;;;;;4972888;28;20034;-75
2024/01/24 09:06:13;;;;;;;63.90;42.35;;;6.10;99.90;;;;;;4973452;28;20023;-73
2024/01/24 09:08:39;;;;;;;67.88;43.50;;;6.20;99.90;;;;;;4973078;28;20482;-73
2024/01/24 09:11:05;;;;;;;61.88;41.55;;;6.30;99.90;;;;;;4973161;28;20051;-73
2024/01/24 09:13:30;;;;;;;64.20;41.45;;;6.30;99.90;;;;;;4973024;28;20033;-74
2024/01/24 09:15:56;;;;;;;73.13;51.50;;;6.40;99.90;;;;;;4956253;28;20038;-75
2024/01/24 09:18:22;;;;;;;77.40;50.42;;;6.40;99.90;;;;;;4972936;28;20058;-74
2024/01/24 09:20:48;;;;;;;64.95;44.92;;;6.50;99.90;;;;;;4973207;28;20105;-73
2024/01/24 09:23:14;;;;;;;57.78;41.10;;;6.60;99.90;;;;;;4955839;28;20027;-76
2024/01/24 09:25:40;;;;;;;61.90;35.00;;;6.70;99.90;;;;;;4973137;28;20498;-77
2024/01/24 09:28:08;;;;;;;54.58;36.30;;;6.80;99.90;;;;;;4973100;28;20035;-77
2024/01/24 09:30:35;;;;;;;56.00;36.35;;;7.00;99.90;;;;;;4973130;28;20033;-74
2024/01/24 09:33:00;;;;;;;47.53;31.27;;;7.10;99.90;;;;;;4973106;28;20029;-74
2024/01/24 09:35:26;;;;;;;41.40;30.15;;;7.20;99.90;;;;;;4973002;28;20113;-73
2024/01/24 09:37:52;;;;;;;42.10;29.52;;;7.30;99.90;;;;;;4955535;28;20031;-79
2024/01/24 09:40:18;;;;;;;45.75;27.95;;;7.50;99.90;;;;;;4972794;28;20541;-81
2024/01/24 09:42:44;;;;;;;44.97;29.83;;;7.60;99.90;;;;;;4972678;28;20106;-81
2024/01/24 09:45:10;;;;;;;46.30;31.20;;;7.60;99.90;;;;;;4972852;28;20390;-73
2024/01/24 09:47:39;;;;;;;50.45;31.83;;;7.70;99.90;;;;;;4972608;28;20027;-81
2024/01/24 09:50:06;;;;;;;42.65;30.35;;;7.70;99.90;;;;;;4972988;28;20054;-83
2024/01/24 09:52:32;;;;;;;49.78;35.72;;;7.70;99.90;;;;;;4955008;28;20030;-78
2024/01/24 09:55:04;;;;;;;51.90;32.33;;;7.70;99.90;;;;;;4973077;28;20101;-77
2024/01/24 09:57:32;;;;;;;44.88;31.15;;;7.60;99.90;;;;;;4972818;28;20043;-73
2024/01/24 09:59:58;;;;;;;44.67;30.10;;;7.60;99.90;;;;;;4972871;28;20125;-74
2024/01/24 10:02:27;;;;;;;50.65;30.55;;;7.60;99.90;;;;;;4972800;28;20026;-74
2024/01/24 10:04:54;;;;;;;47.78;33.08;;;7.60;99.90;;;;;;4972761;28;20136;-73
2024/01/24 10:07:20;;;;;;;48.38;33.55;;;7.60;99.90;;;;;;4972910;28;20477;-73
2024/01/24 10:09:47;;;;;;;45.75;31.65;;;7.60;99.90;;;;;;4972263;28;20059;-74
2024/01/24 10:12:13;;;;;;;49.15;33.55;;;7.60;99.90;;;;;;4973203;28;20108;-75
2024/01/24 10:14:41;;;;;;;46.17;31.95;;;7.60;99.90;;;;;;4976209;28;20155;-74
2024/01/24 10:17:11;;;;;;;45.15;31.58;;;7.60;99.90;;;;;;4976642;28;20200;-73
2024/01/24 10:19:38;;;;;;;49.22;33.35;;;7.60;99.90;;;;;;4976022;28;20034;-74
2024/01/24 10:22:04;;;;;;;44.17;29.88;;;7.60;99.90;;;;;;4959239;28;20432;-74
2024/01/24 10:24:33;;;;;;;52.05;33.55;;;7.70;99.90;;;;;;4976380;28;20038;-74
2024/01/24 10:27:00;;;;;;;48.22;31.27;;;7.50;99.90;;;;;;4976189;28;20433;-77
2024/01/24 10:29:25;;;;;;;53.47;33.33;;;7.50;99.90;;;;;;4976194;28;20022;-75
2024/01/24 10:31:58;;;;;;;44.17;27.52;;;7.30;99.90;;;;;;4976203;28;20390;-78
2024/01/24 10:34:27;;;;;;;;;;;7.30;99.90;;;;;;4976137;28;20069;-77
2024/01/24 10:36:53;;;;;;;44.67;26.98;;;7.10;99.90;;;;;;4975048;28;20378;-75
2024/01/24 10:39:22;;;;;;;47.30;31.25;;;7.10;99.90;;;;;;4975868;28;20038;-74
2024/01/24 10:41:54;;;;;;;37.70;24.45;;;6.90;99.90;;;;;;4958498;28;20073;-74
2024/01/24 10:44:24;;;;;;;42.40;25.40;;;6.80;99.90;;;;;;4975583;28;20042;-77
2024/01/24 10:46:51;;;;;;;50.55;33.03;;;6.80;99.90;;;;;;4976062;28;20085;-76
2024/01/24 10:49:18;;;;;;;39.03;24.33;;;6.80;99.90;;;;;;4975740;28;20031;-77
2024/01/24 10:51:47;;;;;;;39.78;26.88;;;6.60;99.90;;;;;;4975977;28;20018;-83
2024/01/24 10:54:15;;;;;;;51.75;34.03;;;6.60;99.90;;;;;;4945608;28;20530;-79
2024/01/24 10:56:50;;;;;;;38.80;25.17;;;6.80;99.90;;;;;;4975651;28;20023;-79
2024/01/24 10:59:19;;;;;;;35.67;23.25;;;6.80;99.90;;;;;;4927273;29;20384;-82
2024/01/24 11:01:48;;;;;;;45.75;26.90;;;6.80;99.90;;;;;;4970774;28;20102;-76
2024/01/24 11:04:19;;;;;;;42.53;27.23;;;6.90;99.90;;;;;;4975555;28;20074;-75
2024/01/24 11:06:59;;;;;;;48.63;30.80;;;7.00;99.90;;;;;;4975090;28;20047;-80
2024/01/24 11:09:35;;;;;;;47.63;28.58;;;7.10;99.90;;;;;;4975220;28;20038;-73
2024/01/24 11:12:02;;;;;;;50.10;30.10;;;7.10;99.90;;;;;;4975287;28;20105;-82
2024/01/24 11:14:33;;;;;;;45.47;27.23;;;7.20;99.90;;;;;;4975702;28;20037;-74
2024/01/24 11:17:10;;;;;;;42.42;27.95;;;7.30;99.90;;;;;;4975677;28;20030;-73
2024/01/24 11:19:39;;;;;;;52.20;34.33;;;7.50;99.90;;;;;;4958750;28;20027;-75
2024/01/24 11:22:12;;;;;;;50.67;32.33;;;7.50;99.90;;;;;;4957874;28;20054;-73
2024/01/24 11:25:00;;;;;;;49.08;33.13;;;7.40;99.90;;;;;;4975213;28;20045;-74
2024/01/24 11:27:33;;;;;;;38.60;24.92;;;7.60;99.90;;;;;;4958030;28;20074;-82
2024/01/24 11:30:25;;;;;;;44.28;27.35;;;7.60;99.90;;;;;;4975318;28;20512;-73
2024/01/24 11:32:52;;;;;;;35.17;21.85;;;7.80;99.90;;;;;;4951850;28;20047;-73
2024/01/24 11:35:32;;;;;;;36.55;21.23;;;7.90;99.90;;;;;;4975035;28;20019;-82
2024/01/24 11:38:05;;;;;;;32.83;22.70;;;7.80;99.90;;;;;;4975078;28;20023;-81
2024/01/24 11:40:36;;;;;;;39.65;24.67;;;7.80;99.90;;;;;;4975130;28;20097;-83
2024/01/24 11:43:03;;;;;;;31.98;18.05;;;7.70;99.90;;;;;;4974799;28;20467;-82
2024/01/24 11:45:30;;;;;;;33.65;20.67;;;7.60;99.90;;;;;;4974697;28;20035;-78
2024/01/24 11:47:57;;;;;;;27.60;17.17;;;7.70;99.90;;;;;;4974793;28;20050;-73
2024/01/24 11:50:23;;;;;;;30.42;19.75;;;7.70;99.90;;;;;;4974915;28;20081;-76
2024/01/24 11:52:49;;;;;;;28.73;18.15;;;7.60;99.90;;;;;;4974743;28;20027;-75
2024/01/24 11:55:15;;;;;;;35.95;20.38;;;7.60;99.90;;;;;;4974728;28;20033;-77
2024/01/24 11:57:41;;;;;;;34.20;21.60;;;7.50;99.90;;;;;;4974720;28;20042;-74
2024/01/24 12:00:09;;;;;;;25.23;15.50;;;7.50;99.90;;;;;;4974445;28;20031;-75
2024/01/24 12:02:35;;;;;;;43.40;26.75;;;7.50;99.90;;;;;;4974523;28;20034;-79
2024/01/24 12:05:01;;;;;;;53.10;31.45;;;7.40;99.90;;;;;;4974145;28;20062;-73
2024/01/24 12:07:27;;;;;;;53.95;32.33;;;7.50;99.90;;;;;;4974414;28;20066;-80
2024/01/24 12:09:54;;;;;;;41.42;23.95;;;7.60;99.90;;;;;;4973802;28;20145;-77
2024/01/24 12:12:20;;;;;;;30.45;19.30;;;7.80;99.90;;;;;;4974395;28;20031;-73
2024/01/24 12:14:46;;;;;;;29.33;17.90;;;7.90;99.90;;;;;;4973880;28;20070;-79
2024/01/24 12:17:12;;;;;;;28.85;17.52;;;8.10;99.90;;;;;;4974069;28;20030;-81
2024/01/24 12:19:43;;;;;;;28.25;17.95;;;8.20;99.90;;;;;;4956735;28;20035;-81
2024/01/24 12:22:09;;;;;;;32.00;20.00;;;8.20;99.90;;;;;;4974035;28;20023;-76
2024/01/24 12:24:42;;;;;;;33.10;18.90;;;8.20;99.90;;;;;;4974106;28;20117;-78
2024/01/24 12:27:08;;;;;;;29.70;19.85;;;8.20;99.90;;;;;;4974201;28;20023;-73
2024/01/24 12:29:34;;;;;;;31.80;20.73;;;8.30;99.90;;;;;;4974058;28;20538;-74
2024/01/24 12:32:02;;;;;;;34.10;21.58;;;8.40;99.90;;;;;;4973931;28;20377;-77
2024/01/24 12:34:32;;;;;;;28.38;18.80;;;8.40;99.90;;;;;;4973999;28;20030;-73
2024/01/24 12:37:00;;;;;;;34.55;20.33;;;8.40;99.90;;;;;;4956288;28;20069;-78
2024/01/24 12:39:27;;;;;;;34.65;20.88;;;8.40;99.90;;;;;;4973615;28;20045;-74
2024/01/24 12:41:53;;;;;;;32.55;22.25;;;8.30;99.90;;;;;;4974145;28;20058;-81